Ana Sayfa
METAR-TAF:

METAR-TAF

Havaalanları :

Langkawi Uluslararası Havalimanı

Langkawi, Malezya

Enlem: 06-20N, Boylam: 099-44E, yükseklik: 8 m

Güncel hava durumu gözlemi

Rapor saat 14:00 UTC de 29 dakika önce yapıldı.
Rüzgar kuzey/kuzeydoğudan 5 kt, kuzeybatı ve doğu/kuzeydoğu arasında değişken
Sıcaklık 28°C
Nem 79%
Basınç 1010 hPa
Görüş mesafesi 10 km veya daha fazla
2600 ft yükseklikte az bulutlu

METAR: WMKL 151400Z 02005KT 320V070 9999 FEW026 28/24 Q1010

Saat: 22:29 (14:29 UTC)

Tahmin

Rapor saat 11:00 UTC de 3 saat ve 29 dakika önce yapıldı.
Ayın 15'si saat 12 UTC'den ayın 16'si saat 12 UTC'ye kadar geçerli Tahmin
Rüzgar kuzey/kuzeydoğudan 6 kt
Görüş mesafesi 10 km veya daha fazla
2500 ft yükseklikte az bulutlu

TAF: WMKL 151100Z 1512/1612 03006KT 9999 FEW025

4.000'den fazla havaalanı için hava durumu gözlemleri ve tahminleri (METAR ve TAF raporları).

Kullanılabilir istasyonlar harita üzerinde sarı ve kırmızı noktalarla gösterilir.

İstasyonun adını görmek için fareyi noktanın üzerinde gezdirin.

Sonrasında hava gözlem ve tahminlerini görmek için tıklayın.

Haritayı değiştirmek için: yaklaştırmak için siyah artı işaretli yeşil düğmeye ve uzaklaştırmak için de eksi işaretli düğmeye hızla tıklayın; bitişik haritalar için yeşil okları kullanın.


METAR-TAF: